createdAt,value
2019-05-26T00:02:06.305Z,100083.52
2019-05-26T00:05:10.284Z,100081.73
2019-05-26T00:08:13.223Z,100080.91
2019-05-26T00:11:16.564Z,100080.81
2019-05-26T00:14:19.784Z,100084.25
2019-05-26T00:17:23.063Z,100080.69
2019-05-26T00:20:26.379Z,100076.97
2019-05-26T00:23:29.388Z,100076.34
2019-05-26T00:26:33.255Z,100064.16
2019-05-26T00:29:36.168Z,100071.16
2019-05-26T00:32:39.123Z,100064.34
2019-05-26T00:35:42.476Z,100059.84
2019-05-26T00:38:45.408Z,100061.27
2019-05-26T00:41:48.495Z,100058.31
2019-05-26T00:44:51.784Z,100062.31
2019-05-26T00:47:55.220Z,100058.70
2019-05-26T00:50:58.981Z,100062.07
2019-05-26T00:54:01.917Z,100054.84
2019-05-26T00:57:05.724Z,100054.11
2019-05-26T01:00:12.084Z,100045.38
2019-05-26T01:03:15.104Z,100051.76
2019-05-26T01:06:18.016Z,100045.67
2019-05-26T01:09:21.651Z,100039.41
2019-05-26T01:12:24.592Z,100037.43
2019-05-26T01:15:27.838Z,100034.88
2019-05-26T01:18:31.024Z,100029.58
2019-05-26T01:21:34.308Z,100028.94
2019-05-26T01:24:37.539Z,100031.20
2019-05-26T01:27:40.476Z,100029.06
2019-05-26T01:30:44.119Z,100038.41
2019-05-26T01:33:47.344Z,100032.17
2019-05-26T01:36:50.691Z,100028.77
2019-05-26T01:39:53.744Z,100031.43
2019-05-26T01:42:56.684Z,100032.30
2019-05-26T01:45:59.620Z,100033.00
2019-05-26T01:49:02.552Z,100031.22
2019-05-26T01:52:05.477Z,100029.66
2019-05-26T01:55:09.054Z,100021.96
2019-05-26T01:58:12.478Z,100017.80
2019-05-26T02:01:15.422Z,100015.56
2019-05-26T02:04:18.781Z,100019.63
2019-05-26T02:07:21.963Z,100017.04
2019-05-26T02:10:26.240Z,100018.50
2019-05-26T02:13:29.491Z,100019.25
2019-05-26T02:16:32.438Z,100026.14
2019-05-26T02:19:36.035Z,100023.74
2019-05-26T02:22:38.937Z,100026.74
2019-05-26T02:25:42.201Z,100023.95
2019-05-26T02:28:45.114Z,100021.41
2019-05-26T02:31:48.793Z,100020.73
2019-05-26T02:34:52.406Z,100019.68
2019-05-26T02:37:55.331Z,100019.03
2019-05-26T02:40:58.384Z,100017.63
2019-05-26T02:44:01.381Z,100012.95
2019-05-26T02:47:04.407Z,100009.98
2019-05-26T02:50:07.555Z,99998.88
2019-05-26T02:53:10.457Z,100001.14
2019-05-26T02:56:13.585Z,99999.77
2019-05-26T02:59:16.797Z,100003.00
2019-05-26T03:02:19.824Z,99998.86
2019-05-26T03:05:22.769Z,99992.45
2019-05-26T03:08:26.680Z,99988.23
2019-05-26T03:11:33.238Z,99998.20
2019-05-26T03:14:41.297Z,99986.42
2019-05-26T03:17:48.345Z,99995.89
2019-05-26T03:20:55.862Z,99990.25
2019-05-26T03:24:03.269Z,99996.49
2019-05-26T03:27:06.206Z,99996.72
2019-05-26T03:30:10.121Z,99993.86
2019-05-26T03:33:13.382Z,100000.13
2019-05-26T03:36:16.622Z,100002.02
2019-05-26T03:39:19.980Z,99998.65
2019-05-26T03:42:23.298Z,100008.55
2019-05-26T03:46:04.818Z,100001.27
2019-05-26T03:49:07.721Z,99999.52
2019-05-26T03:52:11.031Z,99999.78
2019-05-26T03:55:13.985Z,100005.16
2019-05-26T03:58:16.920Z,100010.97
2019-05-26T04:01:20.132Z,100008.81
2019-05-26T04:04:23.413Z,100006.56
2019-05-26T04:07:26.338Z,100002.77
2019-05-26T04:10:29.285Z,100003.46
2019-05-26T04:13:32.536Z,100008.42
2019-05-26T04:16:35.457Z,100002.06
2019-05-26T04:19:38.380Z,99998.27
2019-05-26T04:22:41.677Z,99991.25
2019-05-26T04:25:44.587Z,99983.91
2019-05-26T04:28:47.824Z,99985.03
2019-05-26T04:31:50.761Z,99987.37
2019-05-26T04:34:53.780Z,99991.28
2019-05-26T04:37:56.715Z,99995.49
2019-05-26T04:40:59.721Z,99992.58
2019-05-26T04:44:03.095Z,99988.56
2019-05-26T04:47:06.023Z,99989.77
2019-05-26T04:50:09.354Z,99985.14
2019-05-26T04:53:12.299Z,99982.80
2019-05-26T04:56:15.211Z,99976.39
2019-05-26T04:59:18.137Z,99976.14
2019-05-26T05:02:21.321Z,99982.33
2019-05-26T05:05:24.275Z,99975.72
2019-05-26T05:08:27.482Z,99979.08
2019-05-26T05:11:30.776Z,99979.52
2019-05-26T05:14:33.720Z,99980.58
2019-05-26T05:17:36.635Z,99979.78
2019-05-26T05:20:40.273Z,99976.23
2019-05-26T05:23:43.504Z,99970.25
2019-05-26T05:26:47.238Z,99967.78
2019-05-26T05:29:50.179Z,99962.67
2019-05-26T05:32:53.941Z,99964.70
2019-05-26T05:35:57.195Z,99968.70
2019-05-26T05:39:00.516Z,99965.82
2019-05-26T05:42:03.536Z,99966.49
2019-05-26T05:45:09.158Z,99960.91
2019-05-26T05:48:12.177Z,99960.95
2019-05-26T05:51:15.172Z,99958.48
2019-05-26T05:54:18.815Z,99955.16
2019-05-26T05:57:22.140Z,99959.03
2019-05-26T06:00:26.171Z,99960.51
2019-05-26T06:03:29.084Z,99959.23
2019-05-26T06:06:32.435Z,99955.30
2019-05-26T06:09:35.355Z,99962.67
2019-05-26T06:12:38.625Z,99957.83
2019-05-26T06:15:41.547Z,99952.72
2019-05-26T06:18:44.461Z,99957.87
2019-05-26T06:21:47.741Z,99951.84
2019-05-26T06:24:50.969Z,99954.86
2019-05-26T06:27:54.201Z,99951.44
2019-05-26T06:30:57.478Z,99956.01
2019-05-26T06:34:00.390Z,99956.72
2019-05-26T06:37:03.700Z,99953.38
2019-05-26T06:40:06.948Z,99955.45
2019-05-26T06:43:10.260Z,99957.53
2019-05-26T06:46:13.188Z,99954.17
2019-05-26T06:49:16.108Z,99953.67
2019-05-26T06:52:19.044Z,99950.36
2019-05-26T06:55:21.966Z,99947.71
2019-05-26T06:58:24.908Z,99944.43
2019-05-26T07:01:28.287Z,99946.56
2019-05-26T07:04:31.199Z,99950.56
2019-05-26T07:07:34.143Z,99953.93
2019-05-26T07:10:38.468Z,99953.99
2019-05-26T07:13:41.787Z,99956.20
2019-05-26T07:16:45.065Z,99958.46
2019-05-26T07:19:49.538Z,99955.98
2019-05-26T07:22:52.483Z,99958.64
2019-05-26T07:25:55.788Z,99957.01
2019-05-26T07:28:59.116Z,99961.63
2019-05-26T07:32:02.242Z,99962.34
2019-05-26T07:35:05.511Z,99965.56
2019-05-26T07:38:09.071Z,99963.22
2019-05-26T07:41:11.971Z,99958.19
2019-05-26T07:44:15.607Z,99955.74
2019-05-26T07:47:18.631Z,99963.06
2019-05-26T07:50:21.928Z,99950.42
2019-05-26T07:53:25.160Z,99957.79
2019-05-26T07:56:28.423Z,99953.10
2019-05-26T07:59:31.676Z,99950.31
2019-05-26T08:02:34.936Z,99948.34
2019-05-26T08:05:37.852Z,99951.27
2019-05-26T08:08:40.993Z,99959.03
2019-05-26T08:11:43.958Z,99957.00
2019-05-26T08:14:46.914Z,99955.95
2019-05-26T08:17:50.185Z,99952.10
2019-05-26T08:20:53.461Z,99952.23
2019-05-26T08:23:56.681Z,99950.09
2019-05-26T08:26:59.944Z,99948.54
2019-05-26T08:30:03.994Z,99946.36
2019-05-26T08:33:06.988Z,99939.51
2019-05-26T08:36:09.932Z,99934.44
2019-05-26T08:39:12.868Z,99936.16
2019-05-26T08:42:26.787Z,99940.27
2019-05-26T08:45:22.747Z,99938.98
2019-05-26T08:48:25.925Z,99930.92
2019-05-26T08:51:29.135Z,99927.31
2019-05-26T08:54:32.087Z,99915.86
2019-05-26T08:57:35.099Z,99925.47
2019-05-26T09:00:38.052Z,99915.58
2019-05-26T09:03:40.960Z,99920.58
2019-05-26T09:06:43.886Z,99915.30
2019-05-26T09:09:46.820Z,99910.48
2019-05-26T09:13:00.432Z,99916.33
2019-05-26T09:15:55.748Z,99910.64
2019-05-26T09:18:59.035Z,99916.78
2019-05-26T09:22:01.960Z,99915.00
2019-05-26T09:25:05.411Z,99910.34
2019-05-26T09:28:08.331Z,99905.89
2019-05-26T09:31:11.568Z,99905.27
2019-05-26T09:34:14.572Z,99903.73
2019-05-26T09:37:17.604Z,99903.08
2019-05-26T09:40:20.709Z,99904.13
2019-05-26T09:43:23.661Z,99903.39
2019-05-26T09:46:27.071Z,99905.60
2019-05-26T09:49:30.260Z,99905.12
2019-05-26T09:52:33.200Z,99902.25
2019-05-26T09:55:36.118Z,99904.38
2019-05-26T09:58:39.048Z,99899.77
2019-05-26T10:01:41.994Z,99906.94
2019-05-26T10:04:45.304Z,99898.77
2019-05-26T10:07:48.625Z,99895.50
2019-05-26T10:10:51.553Z,99894.55
2019-05-26T10:13:54.811Z,99902.86
2019-05-26T10:16:58.214Z,99893.30
2019-05-26T10:20:01.136Z,99890.62
2019-05-26T10:23:04.532Z,99887.38
2019-05-26T10:26:07.483Z,99886.72
2019-05-26T10:29:10.457Z,99892.55
2019-05-26T10:32:13.739Z,99889.80
2019-05-26T10:35:16.672Z,99886.05
2019-05-26T10:38:20.038Z,99889.44
2019-05-26T10:41:23.272Z,99885.77
2019-05-26T10:44:26.194Z,99885.45
2019-05-26T10:47:29.544Z,99879.62
2019-05-26T10:50:32.437Z,99884.07
2019-05-26T10:53:35.704Z,99881.75
2019-05-26T10:56:38.733Z,99881.75
2019-05-26T10:59:41.684Z,99882.46
2019-05-26T11:02:45.524Z,99882.33
2019-05-26T11:05:49.097Z,99878.86
2019-05-26T11:08:53.087Z,99881.28
2019-05-26T11:11:55.999Z,99875.75
2019-05-26T11:14:59.306Z,99865.56
2019-05-26T11:18:02.285Z,99865.90
2019-05-26T11:21:05.188Z,99864.26
2019-05-26T11:24:08.119Z,99862.82
2019-05-26T11:27:13.280Z,99852.55
2019-05-26T11:30:19.138Z,99858.11
2019-05-26T11:33:22.127Z,99859.65
2019-05-26T11:36:25.095Z,99854.67
2019-05-26T11:39:28.032Z,99852.67
2019-05-26T11:42:30.979Z,99842.43
2019-05-26T11:45:34.252Z,99837.84
2019-05-26T11:48:39.277Z,99832.48
2019-05-26T11:51:42.446Z,99840.91
2019-05-26T11:54:45.375Z,99830.11
2019-05-26T11:57:48.318Z,99823.12
2019-05-26T12:00:51.228Z,99815.64
2019-05-26T12:03:54.164Z,99818.41
2019-05-26T12:06:57.444Z,99817.94
2019-05-26T12:10:00.724Z,99811.43
2019-05-26T12:13:03.714Z,99808.36
2019-05-26T12:16:06.923Z,99813.81
2019-05-26T12:19:09.901Z,99811.78
2019-05-26T12:22:13.936Z,99805.84
2019-05-26T12:25:17.056Z,99800.69
2019-05-26T12:28:19.982Z,99797.14
2019-05-26T12:31:22.927Z,99792.02
2019-05-26T12:34:26.474Z,99791.86
2019-05-26T12:37:29.487Z,99793.59
2019-05-26T12:40:32.429Z,99794.84
2019-05-26T12:43:35.372Z,99793.59
2019-05-26T12:46:39.281Z,99786.19
2019-05-26T12:49:42.237Z,99783.72
2019-05-26T12:52:45.173Z,99776.25
2019-05-26T12:55:48.103Z,99785.39
2019-05-26T12:58:51.458Z,99775.84
2019-05-26T13:01:54.660Z,99778.13
2019-05-26T13:04:57.589Z,99772.26
2019-05-26T13:08:00.515Z,99763.55
2019-05-26T13:11:03.488Z,99770.40
2019-05-26T13:14:06.805Z,99770.58
2019-05-26T13:17:10.080Z,99766.63
2019-05-26T13:20:14.640Z,99758.48
2019-05-26T13:23:17.556Z,99763.84
2019-05-26T13:26:20.553Z,99743.76
2019-05-26T13:29:25.887Z,99761.95
2019-05-26T13:32:28.312Z,99753.81
2019-05-26T13:35:31.239Z,99752.38
2019-05-26T13:38:34.299Z,99754.30
2019-05-26T13:41:37.795Z,99745.97
2019-05-26T13:44:41.084Z,99747.16
2019-05-26T13:47:44.357Z,99745.20
2019-05-26T13:50:47.307Z,99749.12
2019-05-26T13:53:50.572Z,99746.84
2019-05-26T13:56:53.945Z,99742.03
2019-05-26T13:59:56.868Z,99740.69
2019-05-26T14:02:59.804Z,99735.77
2019-05-26T14:06:03.923Z,99723.34
2019-05-26T14:09:09.373Z,99733.36
2019-05-26T14:12:13.054Z,99728.75
2019-05-26T14:15:16.105Z,99728.76
2019-05-26T14:18:20.038Z,99735.63
2019-05-26T14:21:23.330Z,99723.48
2019-05-26T14:24:26.613Z,99726.27
2019-05-26T14:27:30.649Z,99711.91
2019-05-26T14:30:33.902Z,99714.09
2019-05-26T14:33:37.172Z,99708.99
2019-05-26T14:36:40.400Z,99704.59
2019-05-26T14:39:43.323Z,99707.95
2019-05-26T14:42:46.564Z,99706.27
2019-05-26T14:45:53.409Z,99697.05
2019-05-26T14:48:54.324Z,99698.00
2019-05-26T14:51:57.597Z,99693.20
2019-05-26T14:55:00.785Z,99687.00
2019-05-26T14:58:15.097Z,99690.76
2019-05-26T15:01:09.641Z,99686.70
2019-05-26T15:04:12.589Z,99684.00
2019-05-26T15:07:15.504Z,99682.45
2019-05-26T15:10:18.468Z,99669.98
2019-05-26T15:13:21.380Z,99666.86
2019-05-26T15:16:25.571Z,99661.51
2019-05-26T15:19:28.786Z,99666.25
2019-05-26T15:22:31.739Z,99670.00
2019-05-26T15:25:35.144Z,99663.70
2019-05-26T15:28:39.492Z,99657.63
2019-05-26T15:31:42.919Z,99653.45
2019-05-26T15:34:46.314Z,99652.42
2019-05-26T15:37:49.584Z,99651.79
2019-05-26T15:40:52.519Z,99645.80
2019-05-26T15:43:56.403Z,99649.97
2019-05-26T15:47:00.035Z,99644.46
2019-05-26T15:50:03.983Z,99644.46
2019-05-26T15:53:07.479Z,99645.59
2019-05-26T15:56:11.105Z,99641.69
2019-05-26T15:59:14.014Z,99634.27
2019-05-26T16:02:17.604Z,99640.29
2019-05-26T16:05:20.559Z,99637.16
2019-05-26T16:08:23.874Z,99629.19
2019-05-26T16:11:27.151Z,99622.09
2019-05-26T16:14:30.578Z,99618.86
2019-05-26T16:17:34.273Z,99621.77
2019-05-26T16:20:37.306Z,99617.31
2019-05-26T16:23:40.671Z,99621.77
2019-05-26T16:26:43.597Z,99615.66
2019-05-26T16:29:46.858Z,99616.10
2019-05-26T16:32:50.286Z,99609.33
2019-05-26T16:35:55.551Z,99602.70
2019-05-26T16:38:58.732Z,99602.55
2019-05-26T16:42:01.696Z,99600.66
2019-05-26T16:45:06.166Z,99599.03
2019-05-26T16:48:09.100Z,99588.61
2019-05-26T16:51:12.405Z,99591.36
2019-05-26T16:54:15.348Z,99589.79
2019-05-26T16:57:19.178Z,99583.14
2019-05-26T17:00:22.105Z,99584.22
2019-05-26T17:03:25.333Z,99592.95
2019-05-26T17:06:28.259Z,99591.97
2019-05-26T17:09:31.950Z,99584.83
2019-05-26T17:12:35.000Z,99586.50
2019-05-26T17:15:37.914Z,99580.48
2019-05-26T17:18:41.295Z,99578.41
2019-05-26T17:21:44.672Z,99576.13
2019-05-26T17:24:49.136Z,99575.08
2019-05-26T17:27:52.476Z,99569.94
2019-05-26T17:30:55.412Z,99567.50
2019-05-26T17:33:58.353Z,99567.41
2019-05-26T17:37:01.289Z,99565.97
2019-05-26T17:40:06.160Z,99565.61
2019-05-26T17:43:10.258Z,99566.22
2019-05-26T17:46:15.301Z,99557.98
2019-05-26T17:49:18.377Z,99558.27
2019-05-26T17:52:21.321Z,99566.31
2019-05-26T17:55:24.871Z,99564.02
2019-05-26T17:58:28.541Z,99559.00
2019-05-26T18:01:31.559Z,99562.67
2019-05-26T18:04:34.591Z,99559.67
2019-05-26T18:07:37.874Z,99557.78
2019-05-26T18:10:41.134Z,99551.01
2019-05-26T18:13:46.672Z,99536.91
2019-05-26T18:16:49.388Z,99538.61
2019-05-26T18:19:53.049Z,99538.58
2019-05-26T18:22:56.276Z,99530.87
2019-05-26T18:25:59.748Z,99538.19
2019-05-26T18:29:03.376Z,99525.24
2019-05-26T18:32:06.578Z,99520.61
2019-05-26T18:35:10.300Z,99516.91
2019-05-26T18:38:13.728Z,99530.52
2019-05-26T18:41:17.413Z,99526.69
2019-05-26T18:44:21.203Z,99524.06
2019-05-26T18:47:24.893Z,99519.97
2019-05-26T18:50:28.013Z,99519.11
2019-05-26T18:53:32.343Z,99508.91
2019-05-26T18:56:35.700Z,99518.53
2019-05-26T18:59:38.915Z,99512.14
2019-05-26T19:02:42.165Z,99512.55
2019-05-26T19:05:45.473Z,99510.19
2019-05-26T19:08:48.757Z,99506.39
2019-05-26T19:11:51.703Z,99501.21
2019-05-26T19:14:55.226Z,99502.62
2019-05-26T19:17:58.368Z,99501.31
2019-05-26T19:21:01.961Z,99492.45
2019-05-26T19:24:05.279Z,99500.73
2019-05-26T19:27:08.316Z,99493.89
2019-05-26T19:30:11.840Z,99500.92
2019-05-26T19:33:15.191Z,99501.05
2019-05-26T19:36:18.821Z,99504.95
2019-05-26T19:39:22.160Z,99500.38
2019-05-26T19:42:25.532Z,99494.59
2019-05-26T19:45:28.588Z,99494.70
2019-05-26T19:48:36.718Z,99506.31
2019-05-26T19:51:37.500Z,99494.68
2019-05-26T19:54:41.487Z,99501.62
2019-05-26T19:57:44.767Z,99499.59
2019-05-26T20:00:48.261Z,99497.94
2019-05-26T20:03:51.340Z,99502.05
2019-05-26T20:06:55.364Z,99496.38
2019-05-26T20:09:58.920Z,99500.65
2019-05-26T20:13:02.248Z,99502.12
2019-05-26T20:16:05.934Z,99500.30
2019-05-26T20:19:08.873Z,99498.20
2019-05-26T20:22:11.903Z,99506.94
2019-05-26T20:25:15.505Z,99499.94
2019-05-26T20:28:18.482Z,99502.12
2019-05-26T20:31:22.136Z,99498.58
2019-05-26T20:34:25.318Z,99499.63
2019-05-26T20:37:28.244Z,99499.23
2019-05-26T20:40:31.623Z,99502.35
2019-05-26T20:43:35.035Z,99501.50
2019-05-26T20:46:38.512Z,99497.86
2019-05-26T20:49:45.178Z,99490.30
2019-05-26T20:52:47.605Z,99494.80
2019-05-26T20:55:51.096Z,99491.33
2019-05-26T20:58:54.016Z,99496.22
2019-05-26T21:01:56.946Z,99491.94
2019-05-26T21:05:00.484Z,99481.79
2019-05-26T21:08:03.805Z,99497.00
2019-05-26T21:11:07.374Z,99484.92
2019-05-26T21:14:11.034Z,99489.91
2019-05-26T21:17:13.972Z,99489.44
2019-05-26T21:20:18.572Z,99489.44
2019-05-26T21:23:22.815Z,99484.47
2019-05-26T21:26:26.409Z,99486.76
2019-05-26T21:29:29.779Z,99487.83
2019-05-26T21:32:33.300Z,99479.77
2019-05-26T21:35:36.519Z,99481.80
2019-05-26T21:38:39.881Z,99481.52
2019-05-26T21:41:43.521Z,99479.67
2019-05-26T21:44:47.094Z,99484.77
2019-05-26T21:47:51.037Z,99482.25
2019-05-26T21:50:54.248Z,99473.00
2019-05-26T21:53:57.181Z,99471.66
2019-05-26T21:57:00.232Z,99466.66
2019-05-26T22:00:06.630Z,99467.58
2019-05-26T22:03:11.767Z,99464.34
2019-05-26T22:06:15.271Z,99467.37
2019-05-26T22:09:18.261Z,99469.33
2019-05-26T22:12:21.602Z,99464.92
2019-05-26T22:15:24.971Z,99463.86
2019-05-26T22:18:28.176Z,99467.36
2019-05-26T22:21:31.081Z,99452.88
2019-05-26T22:24:34.395Z,99455.00
2019-05-26T22:27:37.336Z,99449.42
2019-05-26T22:30:40.288Z,99440.66
2019-05-26T22:33:43.859Z,99443.81
2019-05-26T22:36:47.163Z,99443.93
2019-05-26T22:39:50.094Z,99440.59
2019-05-26T22:42:53.321Z,99440.61
2019-05-26T22:45:57.271Z,99437.34
2019-05-26T22:49:00.238Z,99436.67
2019-05-26T22:52:03.542Z,99435.72
2019-05-26T22:55:08.358Z,99435.72
2019-05-26T22:58:11.341Z,99434.58
2019-05-26T23:01:14.592Z,99436.70
2019-05-26T23:04:17.838Z,99436.28
2019-05-26T23:07:20.867Z,99446.84
2019-05-26T23:10:23.775Z,99430.08
2019-05-26T23:13:27.460Z,99427.03
2019-05-26T23:16:30.408Z,99432.86
2019-05-26T23:19:33.320Z,99426.94
2019-05-26T23:22:36.641Z,99418.62
2019-05-26T23:25:40.767Z,99420.61
2019-05-26T23:28:43.949Z,99417.10
2019-05-26T23:31:46.887Z,99417.95
2019-05-26T23:34:49.807Z,99415.55
2019-05-26T23:37:53.583Z,99424.17
2019-05-26T23:40:56.931Z,99414.62
2019-05-26T23:43:59.835Z,99415.19
2019-05-26T23:47:02.780Z,99409.15
2019-05-26T23:50:07.263Z,99406.37
2019-05-26T23:53:10.202Z,99406.39
2019-05-26T23:56:13.148Z,99411.41
2019-05-26T23:59:16.404Z,99407.09
